createdAt,value
2023-04-16T11:22:50.748Z,16.89
2023-04-16T11:27:57.121Z,17.60
2023-04-16T11:33:02.439Z,18.08
2023-04-16T11:38:10.379Z,18.51
2023-04-16T11:43:17.891Z,18.72
2023-04-16T11:48:23.117Z,18.74
2023-04-16T11:53:30.929Z,18.75
2023-04-16T11:58:36.384Z,18.77
2023-04-16T12:03:49.976Z,18.87
2023-04-16T12:08:58.000Z,18.75
2023-04-16T12:14:13.316Z,18.70
2023-04-16T12:19:18.482Z,18.55
2023-04-16T12:24:27.683Z,18.71
2023-04-16T12:29:33.062Z,19.07
2023-04-16T12:34:53.304Z,19.37
2023-04-16T12:40:01.202Z,19.62
2023-04-16T12:45:07.298Z,19.89
2023-04-16T12:50:13.841Z,19.92
2023-04-16T12:55:22.067Z,20.24
2023-04-16T13:00:27.580Z,20.66
2023-04-16T13:05:32.829Z,21.01
2023-04-16T13:10:41.231Z,20.71
2023-04-16T13:15:46.465Z,20.21
2023-04-16T13:20:52.146Z,19.92
2023-04-16T13:25:59.983Z,19.61
2023-04-16T13:31:05.955Z,19.20
2023-04-16T13:36:11.334Z,18.97
2023-04-16T13:41:19.101Z,18.76
2023-04-16T13:46:24.361Z,18.54
2023-04-16T13:51:30.018Z,18.54
2023-04-16T13:56:37.851Z,18.54
2023-04-16T14:01:43.127Z,18.34
2023-04-16T14:06:48.432Z,18.30
2023-04-16T14:11:56.197Z,18.38
2023-04-16T14:17:03.450Z,18.38
2023-04-16T14:22:09.538Z,18.33
2023-04-16T14:27:17.774Z,18.21
2023-04-16T14:32:23.070Z,18.25
2023-04-16T14:37:29.134Z,18.26
2023-04-16T14:42:37.051Z,18.28
2023-04-16T14:47:46.149Z,18.27
2023-04-16T14:52:51.347Z,18.33
2023-04-16T14:57:59.927Z,18.47
2023-04-16T15:03:05.229Z,18.67
2023-04-16T15:08:10.498Z,18.96
2023-04-16T15:13:18.479Z,19.04
2023-04-16T15:18:23.667Z,19.25
2023-04-16T15:23:28.932Z,19.51
2023-04-16T15:28:36.919Z,19.64
2023-04-16T15:33:42.121Z,19.55
2023-04-16T15:38:47.865Z,19.11
2023-04-16T15:43:56.035Z,18.78
2023-04-16T15:49:01.405Z,18.64
2023-04-16T15:54:07.595Z,18.55
2023-04-16T15:59:15.493Z,18.55
2023-04-16T16:04:23.288Z,18.45
2023-04-16T16:09:28.841Z,18.26
2023-04-16T16:14:36.762Z,18.11
2023-04-16T16:19:41.915Z,17.98
2023-04-16T16:24:49.012Z,17.90
2023-04-16T16:29:57.135Z,17.96
2023-04-16T16:35:02.652Z,18.01
2023-04-16T16:40:09.592Z,17.99
2023-04-16T16:45:17.473Z,18.04
2023-04-16T16:50:23.002Z,18.03
2023-04-16T16:55:28.574Z,17.77
2023-04-16T17:00:36.421Z,17.58
2023-04-16T17:05:41.642Z,17.42
2023-04-16T17:10:47.183Z,17.35
2023-04-16T17:15:55.091Z,17.27
2023-04-16T17:21:00.255Z,17.13
2023-04-16T17:26:05.651Z,16.97
2023-04-16T17:31:13.471Z,16.86
2023-04-16T17:36:19.710Z,16.67
2023-04-16T17:41:24.840Z,16.46
2023-04-16T17:46:32.632Z,16.30
2023-04-16T17:51:38.253Z,16.13
2023-04-16T17:56:43.754Z,16.01
2023-04-16T18:01:52.334Z,15.86
2023-04-16T18:06:57.669Z,15.64
2023-04-16T18:12:03.428Z,15.52
2023-04-16T18:17:11.589Z,15.45
2023-04-16T18:22:16.853Z,15.37
2023-04-16T18:27:22.457Z,15.29
2023-04-16T18:32:31.435Z,15.24
2023-04-16T18:37:36.857Z,15.14
2023-04-16T18:42:42.171Z,15.10
2023-04-16T18:47:50.390Z,15.06
2023-04-16T18:52:56.055Z,15.01
2023-04-16T18:58:01.255Z,14.95
2023-04-16T19:03:09.772Z,14.89
2023-04-16T19:08:15.590Z,14.83
2023-04-16T19:13:21.057Z,14.81
2023-04-16T19:18:28.903Z,14.83
2023-04-16T19:23:34.194Z,14.85
2023-04-16T19:28:39.839Z,14.88
2023-04-16T19:33:47.770Z,14.91
2023-04-16T19:38:53.178Z,14.91
2023-04-16T19:43:58.382Z,14.89
2023-04-16T19:49:06.330Z,14.89
2023-04-16T19:54:11.563Z,14.85
2023-04-16T19:59:16.946Z,14.81
2023-04-16T20:04:24.760Z,14.76
2023-04-16T20:09:30.241Z,14.69
2023-04-16T20:14:35.654Z,14.64
2023-04-16T20:19:47.539Z,14.59
2023-04-16T20:24:55.159Z,14.54
2023-04-16T20:30:00.520Z,14.49
2023-04-16T20:35:11.664Z,14.45
2023-04-16T20:40:17.215Z,14.38
2023-04-16T20:45:22.810Z,14.38
2023-04-16T20:50:30.705Z,14.38
2023-04-16T20:55:36.073Z,14.36
2023-04-16T21:00:41.352Z,14.34
2023-04-16T21:05:53.308Z,14.31
2023-04-16T21:10:58.574Z,14.26
2023-04-16T21:16:05.100Z,14.27
2023-04-16T21:21:13.104Z,14.26
2023-04-16T21:26:18.551Z,14.25
2023-04-16T21:31:23.789Z,14.24
2023-04-16T21:36:32.188Z,14.22
2023-04-16T21:41:37.425Z,14.23
2023-04-16T21:46:42.681Z,14.22
2023-04-16T21:51:59.189Z,14.18
2023-04-16T21:57:04.489Z,14.15
2023-04-16T22:02:09.780Z,14.15
2023-04-16T22:07:20.833Z,14.14
2023-04-16T22:12:26.361Z,14.10
2023-04-16T22:17:31.596Z,14.09
2023-04-16T22:22:39.632Z,14.08
2023-04-16T22:27:44.881Z,14.07
